Earning Calendar for Industry: Major Pharmaceuticals

Report Date Report Time Symbol Name Sector Market Cap(M) EPS EPS Forecast EPS Surprise Price(ER) Day 1 Price Change% Day 2 Price Change% Two Days Price Change%
2018-02-16 IPCI Intellipharmaceutics International Inc. Health Care 65.64 -0.08 -0.07 -14.29
2018-02-16 ARDX Ardelyx, Inc. Health Care 215.61
2018-02-16 IPCI Intellipharmaceutics International Inc. Health Care 65.64
2018-02-15 CYTK Cytokinetics, Incorporated Health Care 620.85 -0.75 -0.71 -5.63
2018-02-15 ZTS Zoetis Inc. Health Care 30620 0.69 0.66 4.55
2018-02-15 IRWD Ironwood Pharmaceuticals, Inc. Health Care 2600 -0.14 -0.19 26.32
2018-02-14 VNDA Vanda Pharmaceuticals Inc. Health Care 612.59 -0.04 -0.12 66.67
2018-02-14 DMPI DelMar Pharmaceuticals, Inc. Health Care 24.37 -0.14 -0.15 6.67
2018-02-14 AGIO Agios Pharmaceuticals, Inc. Health Care 2430 -1.81 -1.65 -9.7
2018-02-14 ICPT Intercept Pharmaceuticals, Inc. Health Care 2950 -4.43 -3.57 -24.09
2018-02-14 TOCA Tocagen Inc. Health Care 287.8
2018-02-14 OHRP Ohr Pharmaceuticals, Inc. Health Care 40.81 -0.07 0 0
2018-02-14 PRTA Prothena Corporation plc Health Care 2060 -1.24 -1.44 13.89
2018-02-14 ZYME Zymeworks Inc. Health Care 210.28
2018-02-14 SHPG Shire plc Health Care 49120 3.98 3.86 3.11
2018-02-14 ALKS Alkermes plc Health Care 8940 0.2 -0.01 2100
2018-02-13 EPIX ESSA Pharma Inc. Health Care 18.91 -0.07 0 0
2018-02-13 BIVV Bioverativ Inc. Health Care 6120 0.76 0.75 1.33
2018-02-13 ACST Acasti Pharma, Inc. Health Care 19.42 -0.31 -0.31 0
2018-02-13 MYOV Myovant Sciences Ltd. Health Care 705.6 -0.7 -0.42 -66.67
2018-02-12 VTGN VistaGen Therapeutics, Inc. Health Care 15.88 -0.24 0 0
2018-02-09 ARWR Arrowhead Pharmaceuticals, Inc. Health Care 125.62 -0.18 -0.18 0
2018-02-09 IMGN ImmunoGen, Inc. Health Care 404.75 -0.1 -0.07 -42.86
2018-02-08 TEVA Teva Pharmaceutical Industries Limited Health Care 30920 0.91 0.77 18.18
2018-02-08 ALNY Alnylam Pharmaceuticals, Inc. Health Care 6490 -1.48 -1.38 -7.25
2018-02-08 ALXN Alexion Pharmaceuticals, Inc. Health Care 26490 1.28 1.09 17.43
2018-02-08 INVA Innoviva, Inc. Health Care 1300 0.5 0.45 11.11
2018-02-08 CBM Cambrex Corporation Health Care 1870 1.27 1.1 15.45
2018-02-08 REGN Regeneron Pharmaceuticals, Inc. Health Care 49900 4.46 4.18 6.7
2018-02-08 CORI Corium International, Inc. Health Care 257.91 -0.37 -0.43 13.95
2018-02-08 MEIP MEI Pharma, Inc. Health Care 75.38 -0.16 -0.26 38.46
2018-02-07 LFVN Lifevantage Corporation Health Care 55.65 0.11 0 0
2018-02-07 ENTA Enanta Pharmaceuticals, Inc. Health Care 623.27 0.78 0.05 1460
2018-02-07 KERX Keryx Biopharmaceuticals, Inc. Health Care 657.31 -0.26 -0.18 -44.44
2018-02-07 LCI Lannett Co Inc Health Care 686.9 1.06 0.86 23.26
2018-02-07 SBOT Stellar Biotechnologies, Inc. Health Care 11.76 -0.13 -0.14 7.14
2018-02-07 SNOA Sonoma Pharmaceuticals, Inc. Health Care 29.3 -0.73 -0.63 -15.87
2018-02-07 SNY Sanofi Health Care 123440 0.62 0.69 -10.14
2018-02-07 GSK GlaxoSmithKline PLC Health Care 106790 0.72 0.69 4.35
2018-02-07 KMDA Kamada Ltd. Health Care 266.07 0.16 0.06 166.67
2018-02-06 ARRY Array BioPharma Inc. Health Care 1300 -0.17 -0.23 26.09
2018-02-06 AGN Allergan plc. Health Care 78850 4.86 4.75 2.32
2018-02-05 PAHC Phibro Animal Health Corporation Health Care 1380 0.44 0.39 12.82
2018-02-05 PTIE Pain Therapeutics, Inc. Health Care 26.23 -0.37 0 0
2018-02-05 BMY Bristol-Myers Squibb Company Health Care 89420 0.68 0.67 1.49
2018-02-05 CTLT Catalent, Inc. Health Care 4620 0.41 0.31 32.26
2018-02-05 GWPH GW Pharmaceuticals Plc Health Care 2460 -2.43 -2.03 -19.7
2018-02-02 MRK Merck & Company, Inc. Health Care 172840 0.98 0.94 4.26
2018-02-02 AZN Astrazeneca PLC Health Care 86370 1.3 0.45 188.89
2018-02-01 NVO Novo Nordisk A/S Health Care 108600 0.53 0.57 -7.02
2018-02-01 PBH Prestige Brand Holdings, Inc. Health Care 2780 0.7 0.7 0
2018-01-31 VRTX Vertex Pharmaceuticals Incorporated Health Care 30890 0.32 0.29 10.34
2018-01-31 LLY Eli Lilly and Company Health Care 90530 1.14 1.08 5.56
2018-01-30 PFE Pfizer, Inc. Health Care 195800 0.62 0.56 10.71
2018-01-26 ABBV AbbVie Inc. Health Care 112360 1.48 1.44 2.78
2018-01-25 RDY Dr. Reddy's Laboratories Ltd Health Care 6950 0.41 0 0
2018-01-25 CELG Celgene Corporation Health Care 94180 1.87 1.78 5.06
2018-01-24 ABT Abbott Laboratories Health Care 83500 0.74 0.73 1.37
2018-01-24 NVS Novartis AG Health Care 190310 1.2 1.16 3.45
2018-01-23 JNJ Johnson & Johnson Health Care 358390 1.74 1.72 1.16
2018-01-11 ORMP Oramed Pharmaceuticals Inc. Health Care 99.04 -0.18 -0.24 25
2017-12-20 ADXS Advaxis, Inc. Health Care 243.18 -0.57 -0.55 -3.64
2017-12-15 OHRP Ohr Pharmaceuticals, Inc. Health Care 40.81 -0.08 -0.08 0
2017-12-12 ARWR Arrowhead Pharmaceuticals, Inc. Health Care 125.62 -0.14 -0.12 -16.67
2017-12-11 PPHM Peregrine Pharmaceuticals Inc. Health Care 164.34 -0.27 -0.12 -125
2017-12-11 EPIX ESSA Pharma Inc. Health Care 18.91 -0.09 0 0
2017-12-06 SMMT Summit Therapeutics plc Health Care 137.91 -0.2 -0.73 72.6
2017-12-04 GWPH GW Pharmaceuticals Plc Health Care 2460 -2.18 -1.73 -26.01
2017-12-01 SBOT Stellar Biotechnologies, Inc. Health Care 11.76 -0.12 -0.14 14.29
2017-11-30 MRUS Merus N.V. Health Care 271.3 -0.95 -0.69 -37.68
2017-11-29 ORMP Oramed Pharmaceuticals Inc. Health Care 99.04 -0.2 0 0
2017-11-28 EARS Auris Medical Holding AG Health Care 32.71 -0.15 -0.2 25
2017-11-21 BLRX BioLineRx Ltd. Health Care 81.27 -0.07 -0.05 -40
2017-11-20 PRQR ProQR Therapeutics N.V. Health Care 118.13 -0.49 -0.49 0
2017-11-20 JAGX Jaguar Animal Health, Inc. Health Care 8.81 0.13 0 0
2017-11-20 EBIO Eleven Biotherapeutics, Inc. Health Care 34.09 -0.37 0 0
2017-11-20 ENTA Enanta Pharmaceuticals, Inc. Health Care 623.27 1.86 1.94 -4.12
2017-11-17 AAAP Advanced Accelerator Applications S.A. Health Care 1620 -0.61 -0.18 -238.89
2017-11-16 ASND Ascendis Pharma A/S Health Care 754.06 -1.22 -0.85 -43.53
2017-11-16 CORI Corium International, Inc. Health Care 257.91 -0.36 -0.43 16.28
2017-11-15 ABEO Abeona Therapeutics Inc. Health Care 191.21 -0.13 -0.18 27.78
2017-11-15 XBIO Xenetic Biosciences, Inc. Health Care 24.15 -0.26 0 0
2017-11-15 NTEC Intec Pharma Ltd. Health Care 78.31 -0.4 -0.34 -17.65
2017-11-14 EVOK Evoke Pharma, Inc. Health Care 38.93 -0.24 -0.19 -26.32
2017-11-14 URGN UroGen Pharma Ltd. Health Care 181.14 -0.02 0.08 -125
2017-11-14 GTXI GTx, Inc. Health Care 77.48 -0.53 -0.28 -89.29
2017-11-14 CLSN Celsion Corporation Health Care 8.34 -0.39 -0.56 30.36
2017-11-14 OBSV ObsEva SA Health Care 178.38 -0.59 -0.58 -1.72
2017-11-14 BHVN Biohaven Pharmaceutical Holding Company Ltd. Health Care 790.04 -1.19 -1.22 2.46
2017-11-14 ZYNE Zynerba Pharmaceuticals, Inc. Health Care 223.39 -0.63 -0.59 -6.78
2017-11-14 CRME Cardiome Pharma Corporation Health Care 124.84 -0.2 -0.16 -25
2017-11-14 AUPH Aurinia Pharmaceuticals Inc Health Care 487.68 -0.16 -0.14 -14.29
2017-11-14 VBLT Vascular Biogenics Ltd. Health Care 121.06 -0.24 -0.2 -20
2017-11-14 PTI Proteostasis Therapeutics, Inc. Health Care 92.59 -0.56 -0.63 11.11
2017-11-14 EYEG Eyegate Pharmaceuticals, Inc. Health Care 14.14 -0.24 -0.24 0
2017-11-14 SBBP Strongbridge Biopharma plc Health Care 151.94 -0.39 -0.46 15.22
2017-11-14 CXRX Concordia International Corp. Health Care 61.08 0.06 0.14 -57.14
2017-11-14 MBRX Moleculin Biotech, Inc. Health Care 13.67 -0.14 0 0
2017-11-14 ALBO Albireo Pharma, Inc. Health Care 149.54 -0.73 -0.85 14.12
2017-11-13 HTBX Heat Biologics, Inc. Health Care 22.08 -0.6 -1 40
2017-11-13 AKTX Akari Therapeutics Plc Health Care 48.99 -0.09 -1 91
2017-11-13 MYOV Myovant Sciences Ltd. Health Care 705.6 -0.5 -0.38 -31.58
2017-11-13 FCSC Fibrocell Science Inc Health Care 44.09 -0.34 -0.41 17.07
2017-11-13 GEMP Gemphire Therapeutics Inc. Health Care 117.24 -0.82 -0.72 -13.89
2017-11-13 DFFN Diffusion Pharmaceuticals Inc. Health Care 24.83 -0.37 -0.43 13.95
2017-11-13 STDY SteadyMed Ltd. Health Care 174.94 -0.02 -0.46 95.65
2017-11-13 BGNE BeiGene, Ltd. Health Care 1580 2.54 -1.33 290.98
2017-11-13 RDHL Redhill Biopharma Ltd. Health Care 155.91 -0.9 -0.72 -25
2017-11-13 KMDA Kamada Ltd. Health Care 266.07 -0.01 0 0
2017-11-13 OREX Orexigen Therapeutics, Inc. Health Care 43.25 -1.35 -2.13 36.62
2017-11-13 ACIU AC Immune SA Health Care 502.62 -0.16 -0.2 20
2017-11-13 ACST Acasti Pharma, Inc. Health Care 19.42 -0.25 0 0
2017-11-10 TRIL Trillium Therapeutics Inc. Health Care 49.27 -0.84 -0.86 2.33
2017-11-10 BSTC BioSpecifics Technologies Corp Health Care 345.6 0.37 0.36 2.78
2017-11-09 NBRV Nabriva Therapeutics AG Health Care 243.27 -0.66 -0.59 -11.86
2017-11-09 ARLZ Aralez Pharmaceuticals Inc. Health Care 75.54 -0.37 -0.39 5.13
2017-11-09 OMER Omeros Corporation Health Care 973.26 -0.07 -0.34 79.41
2017-11-09 AZN Astrazeneca PLC Health Care 86370 1.12 0.57 96.49
2017-11-09 IPXL Impax Laboratories, Inc. Health Care 1020 0.23 0.19 21.05
2017-11-09 CNCE Concert Pharmaceuticals, Inc. Health Care 299.86 -0.7 -0.54 -29.63
2017-11-09 REPH Recro Pharma, Inc. Health Care 118.12 -0.48 -0.75 36
2017-11-09 SGYP Synergy Pharmaceuticals, Inc. Health Care 920.05 -0.22 -0.27 18.52
2017-11-09 SNOA Sonoma Pharmaceuticals, Inc. Health Care 29.3 -0.67 -0.75 10.67
2017-11-09 STML Stemline Therapeutics, Inc. Health Care 193.39 -0.68 -0.57 -19.3
2017-11-09 APVO Aptevo Therapeutics Inc. Health Care 44.52 0.14 2.25 -93.78
2017-11-09 ARGS Argos Therapeutics, Inc. Health Care 16.23 -0.1 0 0
2017-11-09 PBYI Puma Biotechnology Inc Health Care 2900 -2.07 -3.46 40.17
2017-11-09 BYSI BeyondSpring, Inc. Health Care 807.27 -0.68 -0.69 1.45
2017-11-09 PRGO Perrigo Company Health Care 10440 1.39 1.1 26.36
2017-11-09 CATB Catabasis Pharmaceuticals, Inc. Health Care 29.55 -0.31 -0.34 8.82
2017-11-09 ACRX AcelRx Pharmaceuticals, Inc. Health Care 104.38 -0.28 -0.26 -7.69
2017-11-09 KMPH KemPharm, Inc. Health Care 46.87 -0.68 -0.69 1.45
2017-11-09 ALDX Aldeyra Therapeutics, Inc. Health Care 62.8 -0.32 -0.38 15.79
2017-11-09 NVLN Novelion Therapeutics Inc. Health Care 175.37 -0.89 -0.29 -206.9
2017-11-09 FBIO Fortress Biotech, Inc. Health Care 218.44 -0.67 -0.39 -71.79
2017-11-09 ARQL ArQule, Inc. Health Care 81.11 -0.09 -0.12 25
2017-11-09 ONTX Onconova Therapeutics, Inc. Health Care 18.22 -0.71 -0.66 -7.58
2017-11-09 OVID Ovid Therapeutics Inc. Health Care 340.74 -0.38 -0.6 36.67
2017-11-09 PULM Pulmatrix, Inc. Health Care 46.16 -0.22 -0.3 26.67
2017-11-09 CLRB Cellectar Biosciences, Inc. Health Care 21.94 -0.26 -0.25 -4
2017-11-09 LGND Ligand Pharmaceuticals Incorporated Health Care 2410 0.55 0.37 48.65
2017-11-09 CYCC Cyclacel Pharmaceuticals, Inc. Health Care 17.43 -0.91 0 0
2017-11-09 DMPI DelMar Pharmaceuticals, Inc. Health Care 24.37 -0.18 -0.17 -5.88
2017-11-09 ALT Altimmune, Inc. Health Care 2.7 -0.34 -0.23 -47.83
2017-11-09 ENDP Endo International plc Health Care 2410 0.91 0.85 7.06
2017-11-09 GLMD Galmed Pharmaceuticals Ltd. Health Care 73.38 -0.23 -0.27 14.81
2017-11-09 BDSI BioDelivery Sciences International, Inc. Health Care 127.25 -0.21 -0.22 4.55
2017-11-09 VTGN VistaGen Therapeutics, Inc. Health Care 15.88 -0.53 0 0
2017-11-09 WVE WAVE Life Sciences Ltd. Health Care 540.5 -0.94 -0.91 -3.3
2017-11-09 BPTH Bio-Path Holdings, Inc. Health Care 35.39 -0.02 -0.02 0
2017-11-09 PLXP PLx Pharma Inc. Health Care 1.15 -0.44 -0.41 -7.32
2017-11-09 ZSAN Zosano Pharma Corporation Health Care 49.39 -0.2 -0.15 -33.33
2017-11-09 CFRX ContraFect Corporation Health Care 47.9 0.04 -0.11 136.36
2017-11-09 RARX Ra Pharmaceuticals, Inc. Health Care 482.05 -0.68 -0.74 8.11
2017-11-09 KDMN Kadmon Holdings, Inc. Health Care 145.17 -0.42 -0.41 -2.44
2017-11-09 MDGL Madrigal Pharmaceuticals, Inc. Health Care 181.9 -0.68 -0.84 19.05
2017-11-08 EGRX Eagle Pharmaceuticals, Inc. Health Care 1120 1.07 0.57 87.72
2017-11-08 AQXP Aquinox Pharmaceuticals, Inc. Health Care 315.74 -0.5 -0.62 19.35
2017-11-08 FGEN FibroGen, Inc Health Care 2050 -0.5 -0.37 -35.14
2017-11-08 OPK Opko Health, Inc. Health Care 3610 -0.08 -0.05 -60
2017-11-08 OTIC Otonomy, Inc. Health Care 432.68 -0.69 -0.76 9.21
2017-11-08 PCRX Pacira Pharmaceuticals, Inc. Health Care 1750 -0.11 -0.23 52.17
2017-11-08 CBAY CymaBay Therapeutics Inc. Health Care 132.84 -0.21 -0.19 -10.53
2017-11-08 MACK Merrimack Pharmaceuticals, Inc. Health Care 156.26 -0.4 -1.88 78.72
2017-11-08 MGNX MacroGenics, Inc. Health Care 641.36 -1.28 -1.01 -26.73
2017-11-08 EGLT Egalet Corporation Health Care 67.62 -0.46 -0.47 2.13
2017-11-08 FOLD Amicus Therapeutics, Inc. Health Care 1260 -0.41 -0.31 -32.26
2017-11-08 AVDL Avadel Pharmaceuticals plc Health Care 433.66 0.09 -0.04 325
2017-11-08 VKTX Viking Therapeutics, Inc. Health Care 26.56 -0.22 -0.19 -15.79
2017-11-08 OPHT Ophthotech Corporation Health Care 94.65 5.25 4.38 19.86
2017-11-08 GLYC GlycoMimetics, Inc. Health Care 370.05 -0.24 -0.28 14.29
2017-11-08 GTHX G1 Therapeutics, Inc. Health Care 582.48 -0.55 -0.56 1.79
2017-11-08 PRTK Paratek Pharmaceuticals, Inc. Health Care 604.68 -0.77 -0.93 17.2
2017-11-08 ITCI Intra-Cellular Therapies Inc. Health Care 455.92 -0.53 -0.58 8.62
2017-11-08 CEMI Chembio Diagnostics, Inc. Health Care 72.56 -0.05 -0.11 54.55
2017-11-08 CLSD Clearside Biomedical, Inc. Health Care 196.08 -0.72 -0.54 -33.33
2017-11-08 REGN Regeneron Pharmaceuticals, Inc. Health Care 49900 3.32 3.79 -12.4
2017-11-08 RXII RXi Pharmaceuticals Corporation Health Care 13.02 -0.11 -0.11 0
2017-11-08 LXRX Lexicon Pharmaceuticals, Inc. Health Care 1780 -0.29 -0.36 19.44
2017-11-08 AKBA Akebia Therapeutics, Inc. Health Care 558.46 -0.49 -0.7 30
2017-11-08 MCRB Seres Therapeutics, Inc. Health Care 403.91 -0.17 -0.38 55.26
2017-11-08 MEIP MEI Pharma, Inc. Health Care 75.38 -0.24 -0.17 -41.18
2017-11-08 SYRS Syros Pharmaceuticals, Inc. Health Care 434.85 -0.53 -0.53 0
2017-11-08 TGTX TG Therapeutics, Inc. Health Care 737.87 -0.48 -0.46 -4.35
2017-11-08 TOCA Tocagen Inc. Health Care 287.8 -0.5 -0.48 -4.17
2017-11-08 AXSM Axsome Therapeutics, Inc. Health Care 95.6 -0.27 0 0
2017-11-08 CMRX Chimerix, Inc. Health Care 227.66 -0.37 -0.43 13.95
2017-11-08 ZYME Zymeworks Inc. Health Care 210.28 -0.65 -0.74 12.16
2017-11-08 CRBP Corbus Pharmaceuticals Holdings, Inc. Health Care 291.26 -0.14 -0.17 17.65
2017-11-08 LPCN Lipocine Inc. Health Care 76.49 -0.22 -0.27 18.52
2017-11-08 AKAO Achaogen, Inc. Health Care 890.41 -0.85 -0.72 -18.06
2017-11-08 AMPH Amphastar Pharmaceuticals, Inc. Health Care 740.04 0.07 0.02 250
2017-11-08 SRRA Sierra Oncology, Inc. Health Care 58.54 -0.19 -0.21 9.52
2017-11-08 SVRA Savara, Inc. Health Care 144.64 -0.28 -0.4 30
2017-11-08 NEOS Neos Therapeutics, Inc. Health Care 180.49 -0.58 -0.69 15.94
2017-11-08 ATHX Athersys, Inc. Health Care 162.52 -0.06 -0.06 0
2017-11-08 CAPR Capricor Therapeutics, Inc. Health Care 16.95 -0.12 -0.19 36.84
2017-11-08 COLL Collegium Pharmaceutical, Inc. Health Care 303.13 -0.45 -0.73 38.36
2017-11-08 CPRX Catalyst Pharmaceuticals, Inc. Health Care 194.38 -0.05 -0.06 16.67
2017-11-08 AEZS AEterna Zentaris Inc. Health Care 14.62 -0.44 -0.41 -7.32
2017-11-08 LFVN Lifevantage Corporation Health Care 55.65 0.07 0 0
2017-11-07 ALNY Alnylam Pharmaceuticals, Inc. Health Care 6490 -1.34 -1.23 -8.94
2017-11-07 TNXP Tonix Pharmaceuticals Holding Corp. Health Care 30.54 -0.7 -0.68 -2.94
2017-11-07 TRVN Trevena, Inc. Health Care 141.67 -0.27 -0.27 0
2017-11-07 OCUL Ocular Therapeutix, Inc. Health Care 298.41 -0.54 -0.54 0
2017-11-07 AVEO AVEO Pharmaceuticals, Inc. Health Care 80.37 -0.02 -0.05 60
2017-11-07 VVUS VIVUS, Inc. Health Care 123.65 -0.06 -0.13 53.85
2017-11-07 XNCR Xencor, Inc. Health Care 964.42 -0.33 -0.29 -13.79
2017-11-07 IONS Ionis Pharmaceuticals, Inc. Health Care 6230 0 0.02 -100
2017-11-07 CCXI ChemoCentryx, Inc. Health Care 350.7 -0.13 -0.28 53.57
2017-11-07 KIN Kindred Biosciences, Inc. Health Care 162.01 -0.29 -0.32 9.38
2017-11-07 CTMX CytomX Therapeutics, Inc. Health Care 495.39 -0.28 -0.14 -100
2017-11-07 SNDX Syndax Pharmaceuticals, Inc. Health Care 196.43 -0.68 -0.8 15
2017-11-07 ANAB AnaptysBio, Inc. Health Care 474.3 -0.45 -0.46 2.17
2017-11-07 TBPH Theravance Biopharma, Inc. Health Care 1940 -1.27 -1.22 -4.1
2017-11-07 NKTR Nektar Therapeutics Health Care 2810 0.37 0.21 76.19
2017-11-07 ESPR Esperion Therapeutics, Inc. Health Care 780.71 -1.86 -1.76 -5.68
2017-11-07 VSTM Verastem, Inc. Health Care 74.35 -0.61 -0.32 -90.63
2017-11-07 BLPH Bellerophon Therapeutics, Inc. Health Care 44.44 -0.22 -0.22 0
2017-11-07 XENE Xenon Pharmaceuticals Inc. Health Care 69.29 -0.43 -0.08 -437.5
2017-11-07 INFI Infinity Pharmaceuticals, Inc. Health Care 86.26 -0.14 -0.21 33.33
2017-11-07 ZGNX Zogenix, Inc. Health Care 357.32 -1.11 -0.95 -16.84
2017-11-07 CBM Cambrex Corporation Health Care 1870 0.55 0.47 17.02
2017-11-07 ACAD ACADIA Pharmaceuticals Inc. Health Care 3210 -0.53 -0.63 15.87
2017-11-07 KERX Keryx Biopharmaceuticals, Inc. Health Care 657.31 -0.2 -0.17 -17.65
2017-11-07 RTRX Retrophin, Inc. Health Care 677.95 -0.46 -0.21 -119.05
2017-11-07 SELB Selecta Biosciences, Inc. Health Care 342 -0.66 -0.88 25
2017-11-07 MNKD MannKind Corporation Health Care 149.49 -0.31 -0.27 -14.81
2017-11-07 ARDX Ardelyx, Inc. Health Care 215.61 -0.44 -0.52 15.38
2017-11-07 VRNA Verona Pharma plc Health Care 161.91 -0.91 -0.51 -78.43
2017-11-07 BLCM Bellicum Pharmaceuticals, Inc. Health Care 346.92 -0.71 -0.72 1.39
2017-11-07 ZFGN Zafgen, Inc. Health Care 101.01 -0.46 -0.54 14.81
2017-11-07 PRTA Prothena Corporation plc Health Care 2060 -1.37 -1.41 2.84
2017-11-07 ACRS Aclaris Therapeutics, Inc. Health Care 657.11 -0.63 -0.86 26.74
2017-11-07 RIGL Rigel Pharmaceuticals, Inc. Health Care 320.78 -0.14 -0.15 6.67
2017-11-07 AFMD Affimed N.V. Health Care 90.07 -0.21 -0.21 0
2017-11-07 RXDX Ignyta, Inc. Health Care 511.53 -0.51 -0.56 8.93
2017-11-07 SCYX SCYNEXIS, Inc. Health Care 44.12 -0.27 -0.3 10
2017-11-07 MBVX MabVax Therapeutics Holdings, Inc. Health Care 12.63 -0.54 0 0
2017-11-07 ALDR Alder BioPharmaceuticals, Inc. Health Care 892.27 -0.92 -1.21 23.97
2017-11-07 ARNA Arena Pharmaceuticals, Inc. Health Care 399.97 -0.65 -0.66 1.52
2017-11-07 TSRO TESARO, Inc. Health Care 7770 -0.47 -1.04 54.81
2017-11-07 GALT Galectin Therapeutics Inc. Health Care 85.64 -0.13 -0.14 7.14
2017-11-07 VNDA Vanda Pharmaceuticals Inc. Health Care 612.59 -0.1 -0.1 0
2017-11-07 VRX Valeant Pharmaceuticals International, Inc. Health Care 4140 1.04 0.9 15.56
2017-11-07 JAZZ Jazz Pharmaceuticals plc Health Care 9000 2.93 2.53 15.81
2017-11-07 RGLS Regulus Therapeutics Inc. Health Care 51.85 -0.18 -0.18 0
2017-11-07 KURA Kura Oncology, Inc. Health Care 170.17 -0.38 -0.37 -2.7
2017-11-07 AGLE Aeglea BioTherapeutics, Inc. Health Care 45.74 -0.48 -0.67 28.36
2017-11-07 DEPO Depomed, Inc. Health Care 612.19 -0.25 -0.36 30.56
2017-11-07 MNK Mallinckrodt plc Health Care 4170 1.97 1.8 9.44
2017-11-06 MYL Mylan N.V. Health Care 19820 1.1 1.22 -9.84
2017-11-06 SUPN Supernus Pharmaceuticals, Inc. Health Care 1970 0.29 0.27 7.41
2017-11-06 FPRX Five Prime Therapeutics, Inc. Health Care 814.07 -1.54 -1.32 -16.67
2017-11-06 PAHC Phibro Animal Health Corporation Health Care 1380 0.38 0.37 2.7
2017-11-06 ZIOP ZIOPHARM Oncology Inc Health Care 772.97 -0.13 -0.13 0
2017-11-06 CERC Cerecor Inc. Health Care 7.6 0.52 -0.24 316.67
2017-11-06 AGRX Agile Therapeutics, Inc. Health Care 107.74 -0.22 -0.25 12
2017-11-06 TLGT Teligent, Inc. Health Care 459.88 -0.09 -0.01 -800
2017-11-06 TXMD TherapeuticsMD, Inc. Health Care 913.59 -0.07 -0.09 22.22
2017-11-06 HRTX Heron Therapeutics, Inc. Health Care 746.39 -0.77 -0.87 11.49
2017-11-06 LCI Lannett Co Inc Health Care 686.9 0.6 0.52 15.38
2017-11-06 CTLT Catalent, Inc. Health Care 4620 0.18 0.15 20
2017-11-06 NERV Minerva Neurosciences, Inc Health Care 354.2 -0.28 -0.27 -3.7
2017-11-06 FLXN Flexion Therapeutics, Inc. Health Care 538.93 -1.07 -0.98 -9.18
2017-11-06 DERM Dermira, Inc. Health Care 1210 -1.21 -1.12 -8.04
2017-11-06 ECYT Endocyte, Inc. Health Care 64.98 -0.3 -0.35 14.29
2017-11-06 ANTH Anthera Pharmaceuticals, Inc. Health Care 2.36 -0.58 -0.9 35.56
2017-11-06 FLKS Flex Pharma, Inc. Health Care 63.26 -0.54 -0.62 12.9
2017-11-06 HZNP Horizon Pharma plc Health Care 1660 0.26 0.22 18.18
2017-11-06 XOMA XOMA Corporation Health Care 47.41 1.98 -0.81 344.44
2017-11-06 PTGX Protagonist Therapeutics, Inc. Health Care 182.72 -0.29 -0.95 69.47
2017-11-06 PTLA Portola Pharmaceuticals, Inc. Health Care 2020 -1.41 -1.45 2.76
2017-11-06 CTIC CTI BioPharma Corp. Health Care 96.82 -0.28 -0.32 12.5
2017-11-06 AIMT Aimmune Therapeutics, Inc. Health Care 904.66 -0.63 -0.72 12.5
2017-11-06 SNGX Soligenix, Inc. Health Care 11.74 -0.17 -0.4 57.5
2017-11-03 IMGN ImmunoGen, Inc. Health Care 404.75 -0.37 -0.28 -32.14
2017-11-03 DVAX Dynavax Technologies Corporation Health Care 373.27 -0.38 -0.52 26.92
2017-11-02 SNSS Sunesis Pharmaceuticals, Inc. Health Care 61.16 -0.43 -0.37 -16.22
2017-11-02 EBS Emergent Biosolutions, Inc. Health Care 1290 0.73 0.4 82.5
2017-11-02 AMAG AMAG Pharmaceuticals, Inc. Health Care 564.23 1.57 -0.04 4025
2017-11-02 ANIP ANI Pharmaceuticals, Inc. Health Care 525.57 1.03 0.9 14.44
2017-11-02 NLNK NewLink Genetics Corporation Health Care 177.4 -0.69 -0.74 6.76
2017-11-02 GRFS Grifols, S.A. Health Care 14390 0.29 0.29 0
2017-11-02 PGNX Progenics Pharmaceuticals Inc. Health Care 474.02 -0.22 -0.24 8.33
2017-11-02 INSM Insmed, Inc. Health Care 964.88 -0.69 -0.69 0
2017-11-02 CALA Calithera Biosciences, Inc. Health Care 499.42 -0.17 -0.25 32
2017-11-02 PTCT PTC Therapeutics, Inc. Health Care 692.28 -0.67 -0.66 -1.52
2017-11-02 RARE Ultragenyx Pharmaceutical Inc. Health Care 2620 -1.87 -1.87 0
2017-11-02 JNP Juniper Pharmaceuticals, Inc. Health Care 55.85 -0.08 -0.17 52.94
2017-11-02 ZTS Zoetis Inc. Health Care 30620 0.65 0.63 3.17
2017-11-02 KPTI Karyopharm Therapeutics Inc. Health Care 432.55 -0.65 -0.64 -1.56
2017-11-02 CORT Corcept Therapeutics Incorporated Health Care 1210 0.11 0.13 -15.38
2017-11-02 CRVS Corvus Pharmaceuticals, Inc. Health Care 228.19 -0.62 -0.85 27.06
2017-11-02 SAGE Sage Therapeutics, Inc. Health Care 2880 -1.97 -1.95 -1.03
2017-11-02 SPPI Spectrum Pharmaceuticals, Inc. Health Care 519.46 -0.22 -0.23 4.35
2017-11-02 OMED OncoMed Pharmaceuticals, Inc. Health Care 135.07 -0.28 -0.4 30
2017-11-02 RDUS Radius Health, Inc. Health Care 1760 -1.31 -1.24 -5.65
2017-11-02 DRNA Dicerna Pharmaceuticals, Inc. Health Care 123.55 -0.92 -0.75 -22.67
2017-11-02 SNY Sanofi Health Care 123440 1 1 0
2017-11-02 APRI Apricus Biosciences, Inc. Health Care 12.9 -0.3 -0.15 -100
2017-11-02 TTPH Tetraphase Pharmaceuticals, Inc. Health Care 280.12 -0.63 -0.68 7.35
2017-11-02 GBT Global Blood Therapeutics, Inc. Health Care 1170 -0.66 -0.61 -8.2
2017-11-02 PBH Prestige Brand Holdings, Inc. Health Care 2780 0.61 0.66 -7.58
2017-11-02 CARA Cara Therapeutics, Inc. Health Care 556.53 -0.38 -0.31 -22.58
2017-11-02 IRWD Ironwood Pharmaceuticals, Inc. Health Care 2600 -0.18 -0.23 21.74
2017-11-02 ABUS Arbutus Biopharma Corporation Health Care 189.83 -0.17 -0.38 55.26
2017-11-02 ADMS Adamas Pharmaceuticals, Inc. Health Care 385.7 -1.04 -1.03 -0.97
2017-11-02 MYOK MyoKardia, Inc. Health Care 426.23 -0.42 -0.41 -2.44
2017-11-02 TEVA Teva Pharmaceutical Industries Limited Health Care 30920 0.95 1.03 -7.77
2017-11-02 AXON Axovant Sciences Ltd. Health Care 2230 -0.64 -0.55 -16.36
2017-11-02 OVAS OvaScience Inc. Health Care 48.14 -0.25 -0.4 37.5
2017-11-02 PETX Aratana Therapeutics, Inc. Health Care 271.06 -0.21 -0.26 19.23
2017-11-02 INSY Insys Therapeutics, Inc. Health Care 817.18 -0.25 -0.23 -8.7
2017-11-02 CBIO Catalyst Biosciences, Inc. Health Care 18.36 -1.34 0 0
2017-11-02 RVNC Revance Therapeutics, Inc. Health Care 689.48 -1.01 -0.93 -8.6
2017-11-02 LOXO Loxo Oncology, Inc. Health Care 1920 -1.12 -1.38 18.84
2017-11-01 DRRX DURECT Corporation Health Care 184.56 0.04 -0.05 180
2017-11-01 NVO Novo Nordisk A/S Health Care 108600 0.62 0.58 6.9
2017-11-01 GERN Geron Corporation Health Care 410.67 -0.04 -0.05 20
2017-11-01 IMDZ Immune Design Corp. Health Care 182.83 -0.52 -0.63 17.46
2017-11-01 PTIE Pain Therapeutics, Inc. Health Care 26.23 -0.4 0 0
2017-11-01 ACHN Achillion Pharmaceuticals, Inc. Health Care 568.77 -0.14 -0.18 22.22
2017-11-01 AGIO Agios Pharmaceuticals, Inc. Health Care 2430 -1.59 -1.74 8.62
2017-11-01 ALIM Alimera Sciences, Inc. Health Care 86.32 -0.04 -0.05 20
2017-11-01 ASMB Assembly Biosciences, Inc. Health Care 378.67 -0.71 -0.88 19.32
2017-11-01 VTVT vTv Therapeutics Inc. Health Care 158.48 -0.38 -0.4 5
2017-11-01 ICPT Intercept Pharmaceuticals, Inc. Health Care 2950 -2.89 -3.55 18.59
2017-11-01 QURE uniQure N.V. Health Care 130.95 -0.4 -0.65 38.46
2017-11-01 CNAT Conatus Pharmaceuticals Inc. Health Care 143.32 -0.13 -0.05 -160
2017-11-01 AGN Allergan plc. Health Care 78850 4.15 4.06 2.22
2017-11-01 MRTX Mirati Therapeutics, Inc. Health Care 78.56 -0.65 -0.81 19.75
2017-11-01 EDGE Edge Therapeutics, Inc. Health Care 308.11 -0.37 -0.48 22.92
2017-11-01 AMRN Amarin Corporation plc Health Care 803.26 -0.04 -0.05 20
2017-11-01 EPZM Epizyme, Inc. Health Care 846.19 -0.63 -0.65 3.08
2017-11-01 CLVS Clovis Oncology, Inc. Health Care 2670 -1.24 -1.16 -6.9
2017-11-01 SCMP Sucampo Pharmaceuticals, Inc. Health Care 443.74 0.27 0.25 8
2017-10-31 ARRY Array BioPharma Inc. Health Care 1300 -0.22 -0.22 0 10.45 -1.97 0 -1.97
2017-10-31 BPMC Blueprint Medicines Corporation Health Care 1520 -0.96 -0.9 -6.67 66.42 -3.08 0 -3.08
2017-10-31 RTTR Ritter Pharmaceuticals, Inc. Health Care 9.76 -0.14 -0.16 12.5 0.3658 -3.38 0 -3.38
2017-10-31 SBPH Spring Bank Pharmaceuticals, Inc. Health Care 134.51 -0.39 -0.46 15.22 15.29 -1.86 0 -1.86
2017-10-31 PFE Pfizer, Inc. Health Care 195800 0.67 0.65 3.08 35.06 -0.26 0 -0.26
2017-10-31 ADRO Aduro Biotech, Inc. Health Care 734.09 -0.33 -0.33 0 7.95 -3.64 0 -3.64
2017-10-31 RDY Dr. Reddy's Laboratories Ltd Health Care 6950 0.26 0 0 36.37 0.61 0 0.61
2017-10-27 ABBV AbbVie Inc. Health Care 112360 1.41 1.39 1.44 91.93 2.65 -1.06 1.56
2017-10-27 SHPG Shire plc Health Care 49120 3.81 3.64 4.67 142.17 2.84 2.53 5.44
2017-10-27 MRK Merck & Company, Inc. Health Care 172840 1.11 1.03 7.77 58.24 -6.05 -6.06 -11.74
2017-10-26 CYTK Cytokinetics, Incorporated Health Care 620.85 -0.6 -0.64 6.25 12.8 -4.12 11.33 6.74
2017-10-26 ALXN Alexion Pharmaceuticals, Inc. Health Care 26490 1.28 1.13 13.27 126.07 -4.5 2.02 -2.57
2017-10-26 BMY Bristol-Myers Squibb Company Health Care 89420 0.75 0.77 -2.6 60.95 -4.77 -1.66 -6.34
2017-10-26 VSAR Versartis, Inc. Health Care 587.99 -1.4 -0.68 -105.88 2.3 -4.17 -17.39 -20.83
2017-10-26 CELG Celgene Corporation Health Care 94180 1.78 1.72 3.49 99.99 -16.37 -1.82 -17.89
2017-10-26 ALKS Alkermes plc Health Care 8940 -0.09 -0.15 40 54.97 11.07 -9.31 0.73
2017-10-26 BIVV Bioverativ Inc. Health Care 6120 0.63 0.55 14.55 57.25 -2.52 -2.46 -4.92
2017-10-26 BMRN BioMarin Pharmaceutical Inc. Health Care 15790 -0.07 -0.13 46.15 82.53 -2.67 0.75 -1.93
2017-10-25 SRPT Sarepta Therapeutics, Inc. Health Care 1780 -0.78 -0.86 9.3 48.36 -1.23 -1.49 -2.7
2017-10-25 VRTX Vertex Pharmaceuticals Incorporated Health Care 30890 0.24 0.04 500 146.8 -2.85 -2.07 -4.86
2017-10-25 MDCO The Medicines Company Health Care 2710 -0.42 -1.46 71.23 32.39 -1.4 -9.08 -10.35
2017-10-25 INVA Innoviva, Inc. Health Care 1300 0.21 0.33 -36.36 11.73 -15.55 4.35 -11.88
2017-10-25 GSK GlaxoSmithKline PLC Health Care 106790 0.85 0.84 1.19 38.19 -5.66 -4.16 -9.58
2017-10-25 VTL Vital Therapies, Inc. Health Care 126.62 -0.3 -0.3 0 5.4 -1.82 -2.78 -4.55
2017-10-25 UTHR United Therapeutics Corporation Health Care 5880 6.27 4.01 56.36 122.89 3.36 -3.08 0.17
2017-10-25 ONCS OncoSec Medical Incorporated Health Care 22.54 -0.28 -0.23 -21.74 1.15 9.52 -0.87 8.57
2017-10-24 LLY Eli Lilly and Company Health Care 90530 1.05 1.03 1.94 85.17 -2.31 -0.38 -2.67
2017-10-24 NVS Novartis AG Health Care 190310 1.29 1.25 3.2 83.13 -3.24 -2.12 -5.28
2017-10-24 GLPG Galapagos NV Health Care 3960 -0.85 -0.78 -8.97 99.38 -0.69 -1.41 -2.09
2017-10-23 MNOV MediciNova, Inc. Health Care 189.63 -0.11 -0.09 -22.22 6.44 4.89 -0.31 4.56
2017-10-18 ABT Abbott Laboratories Health Care 83500 0.66 0.65 1.54 55.77 1.29 0.41 1.71
2017-10-17 JNJ Johnson & Johnson Health Care 358390 1.9 1.8 5.56 140.79 3.43 -0.08 3.35
2017-10-10 IPCI Intellipharmaceutics International Inc. Health Care 65.64 -0.08 -0.04 -100 1.15 2.22 -6.09 -4
2017-09-27 DMPI DelMar Pharmaceuticals, Inc. Health Care 24.37 -0.2 -0.19 -5.26 0.8998 -4.28 -6.09 -10.11